createdAt,value
2022-12-17T00:02:13.003Z,100.70
2022-12-17T00:05:15.227Z,113.30
2022-12-17T00:08:18.901Z,108.10
2022-12-17T00:11:20.309Z,110.80
2022-12-17T00:14:35.560Z,104.00
2022-12-17T00:17:36.817Z,102.80
2022-12-17T00:20:38.536Z,99.40
2022-12-17T00:23:40.177Z,105.00
2022-12-17T00:26:41.511Z,105.80
2022-12-17T00:29:42.952Z,103.70
2022-12-17T00:32:44.489Z,97.30
2022-12-17T00:35:46.288Z,113.40
2022-12-17T00:38:47.727Z,100.00
2022-12-17T00:41:49.281Z,99.80
2022-12-17T00:45:10.732Z,98.40
2022-12-17T00:48:12.428Z,92.10
2022-12-17T00:51:14.179Z,103.60
2022-12-17T00:54:15.429Z,100.80
2022-12-17T00:57:17.063Z,103.10
2022-12-17T01:00:18.736Z,111.40
2022-12-17T01:03:29.619Z,96.30
2022-12-17T01:06:30.936Z,101.80
2022-12-17T01:09:32.504Z,97.80
2022-12-17T01:12:34.172Z,93.00
2022-12-17T01:15:36.108Z,93.50
2022-12-17T01:18:38.530Z,98.40
2022-12-17T01:21:40.947Z,102.80
2022-12-17T01:24:43.295Z,93.50
2022-12-17T01:27:44.819Z,94.20
2022-12-17T01:30:46.580Z,82.60
2022-12-17T01:33:48.131Z,98.50
2022-12-17T01:36:49.512Z,98.20
2022-12-17T01:43:00.260Z,90.70
2022-12-17T01:46:08.517Z,85.70
2022-12-17T01:49:10.192Z,84.70
2022-12-17T01:52:12.806Z,91.20
2022-12-17T01:55:14.551Z,87.70
2022-12-17T01:58:15.987Z,87.60
2022-12-17T02:01:17.718Z,89.40
2022-12-17T02:04:29.021Z,82.60
2022-12-17T02:07:49.623Z,82.30
2022-12-17T02:11:17.403Z,84.40
2022-12-17T02:14:42.278Z,95.80
2022-12-17T02:17:51.693Z,98.00
2022-12-17T02:20:59.678Z,99.30
2022-12-17T02:24:18.330Z,89.90
2022-12-17T02:27:24.655Z,98.80
2022-12-17T02:30:28.691Z,88.40
2022-12-17T02:33:31.814Z,83.80
2022-12-17T02:36:33.776Z,94.30
2022-12-17T02:39:55.379Z,87.50
2022-12-17T02:43:00.798Z,85.90
2022-12-17T02:46:05.654Z,85.50
2022-12-17T02:49:07.152Z,77.30
2022-12-17T02:52:09.819Z,76.30
2022-12-17T02:55:11.356Z,79.90
2022-12-17T02:58:12.896Z,77.90
2022-12-17T03:01:14.524Z,97.00
2022-12-17T03:04:16.255Z,86.10
2022-12-17T03:07:20.473Z,84.90
2022-12-17T03:10:22.439Z,85.60
2022-12-17T03:13:24.173Z,83.20
2022-12-17T03:16:37.811Z,78.90
2022-12-17T03:19:40.049Z,96.10
2022-12-17T03:22:41.581Z,85.70
2022-12-17T03:25:43.427Z,86.20
2022-12-17T03:28:45.069Z,79.50
2022-12-17T03:31:46.915Z,83.70
2022-12-17T03:34:48.660Z,88.70
2022-12-17T03:37:50.316Z,82.60
2022-12-17T03:40:52.061Z,88.20
2022-12-17T03:43:53.599Z,80.20
2022-12-17T03:46:55.307Z,75.10
2022-12-17T03:49:57.085Z,88.50
2022-12-17T03:52:58.838Z,90.50
2022-12-17T03:56:00.779Z,88.20
2022-12-17T03:59:04.979Z,85.50
2022-12-17T04:02:08.324Z,95.50
2022-12-17T04:05:12.698Z,87.30
2022-12-17T04:08:16.680Z,86.40
2022-12-17T04:11:18.401Z,81.40
2022-12-17T04:14:19.939Z,84.00
2022-12-17T04:17:21.607Z,85.40
2022-12-17T04:20:23.635Z,87.10
2022-12-17T04:23:25.375Z,88.80
2022-12-17T04:26:27.156Z,90.00
2022-12-17T04:29:29.433Z,79.60
2022-12-17T04:32:35.003Z,82.50
2022-12-17T04:35:37.059Z,85.60
2022-12-17T04:38:38.501Z,77.20
2022-12-17T04:41:40.140Z,82.50
2022-12-17T04:44:42.085Z,89.20
2022-12-17T04:47:43.847Z,82.40
2022-12-17T04:50:45.777Z,79.80
2022-12-17T04:53:47.574Z,85.70
2022-12-17T04:56:49.368Z,80.30
2022-12-17T04:59:50.906Z,81.80
2022-12-17T05:02:54.025Z,82.50
2022-12-17T05:08:57.389Z,64.10
2022-12-17T05:12:18.660Z,78.50
2022-12-17T05:15:20.504Z,82.00
2022-12-17T05:18:26.463Z,85.20
2022-12-17T05:21:31.922Z,73.20
2022-12-17T05:24:34.849Z,69.80
2022-12-17T05:27:36.177Z,70.30
2022-12-17T05:30:38.737Z,71.10
2022-12-17T05:33:40.392Z,77.00
2022-12-17T05:36:41.973Z,78.10
2022-12-17T05:39:43.523Z,73.80
2022-12-17T05:42:44.943Z,72.70
2022-12-17T05:45:46.229Z,75.10
2022-12-17T05:48:48.588Z,67.90
2022-12-17T05:51:50.126Z,70.30
2022-12-17T05:54:51.769Z,78.60
2022-12-17T05:57:56.353Z,76.90
2022-12-17T06:00:58.314Z,73.00
2022-12-17T06:04:00.395Z,70.50
2022-12-17T06:07:01.918Z,70.90
2022-12-17T06:10:03.612Z,67.30
2022-12-17T06:13:16.835Z,68.10
2022-12-17T06:16:18.518Z,57.90
2022-12-17T06:19:20.045Z,59.90
2022-12-17T06:22:21.892Z,69.80
2022-12-17T06:25:23.943Z,68.80
2022-12-17T06:28:25.549Z,57.20
2022-12-17T06:31:27.178Z,66.00
2022-12-17T06:34:28.666Z,60.30
2022-12-17T06:37:30.409Z,57.70
2022-12-17T06:40:31.843Z,60.60
2022-12-17T06:43:33.879Z,70.30
2022-12-17T06:46:35.686Z,73.90
2022-12-17T06:49:37.279Z,67.70
2022-12-17T06:52:38.688Z,63.50
2022-12-17T06:55:40.153Z,71.30
2022-12-17T06:58:41.692Z,115.70
2022-12-17T07:01:44.565Z,120.40
2022-12-17T07:04:47.535Z,78.50
2022-12-17T07:07:48.868Z,63.60
2022-12-17T07:10:50.617Z,57.40
2022-12-17T07:13:52.052Z,52.10
2022-12-17T07:16:53.553Z,57.90
2022-12-17T07:19:54.814Z,54.50
2022-12-17T07:22:56.257Z,56.50
2022-12-17T07:25:58.656Z,58.00
2022-12-17T07:29:00.156Z,55.80
2022-12-17T07:32:01.894Z,48.60
2022-12-17T07:35:04.665Z,57.90
2022-12-17T07:38:06.409Z,49.80
2022-12-17T07:41:07.949Z,47.00
2022-12-17T07:44:09.488Z,51.00
2022-12-17T07:47:11.028Z,55.60
2022-12-17T07:50:12.465Z,51.10
2022-12-17T07:53:21.371Z,56.40
2022-12-17T07:56:23.142Z,69.60
2022-12-17T07:59:24.693Z,54.20
2022-12-17T08:02:29.253Z,48.30
2022-12-17T08:05:30.985Z,53.10
2022-12-17T08:08:33.673Z,50.40
2022-12-17T08:11:35.120Z,44.10
2022-12-17T08:14:36.751Z,50.30
2022-12-17T08:17:38.103Z,47.00
2022-12-17T08:20:39.932Z,52.80
2022-12-17T08:23:41.502Z,48.20
2022-12-17T08:26:47.492Z,46.60
2022-12-17T08:29:49.668Z,52.10
2022-12-17T08:32:53.049Z,40.30
2022-12-17T08:38:55.617Z,41.80
2022-12-17T08:42:04.053Z,47.90
2022-12-17T08:45:05.977Z,43.40
2022-12-17T08:48:07.404Z,42.40
2022-12-17T08:51:09.163Z,39.60
2022-12-17T08:54:10.763Z,35.40
2022-12-17T08:57:12.221Z,38.40
2022-12-17T09:00:13.757Z,42.00
2022-12-17T09:03:19.982Z,40.40
2022-12-17T09:06:21.966Z,37.50
2022-12-17T09:09:23.499Z,37.50
2022-12-17T09:12:25.235Z,32.20
2022-12-17T09:15:27.332Z,38.00
2022-12-17T09:18:29.064Z,38.20
2022-12-17T09:21:30.467Z,32.70
2022-12-17T09:24:32.979Z,38.30
2022-12-17T09:27:34.710Z,37.90
2022-12-17T09:30:38.700Z,41.80
2022-12-17T09:33:47.983Z,40.50
2022-12-17T09:36:51.276Z,37.90
2022-12-17T09:39:52.861Z,38.50
2022-12-17T09:43:12.327Z,46.20
2022-12-17T09:46:27.966Z,39.80
2022-12-17T09:49:39.069Z,34.90
2022-12-17T09:52:51.211Z,41.40
2022-12-17T09:56:03.237Z,36.60
2022-12-17T09:59:04.606Z,38.80
2022-12-17T10:02:06.110Z,36.50
2022-12-17T10:05:07.740Z,40.70
2022-12-17T10:08:10.916Z,37.30
2022-12-17T10:11:13.788Z,42.00
2022-12-17T10:14:15.181Z,44.00
2022-12-17T10:17:16.452Z,49.20
2022-12-17T10:20:18.615Z,45.40
2022-12-17T10:23:20.062Z,40.60
2022-12-17T10:26:25.474Z,35.50
2022-12-17T10:29:48.120Z,37.90
2022-12-17T10:32:50.438Z,45.40
2022-12-17T10:35:56.188Z,42.50
2022-12-17T10:38:57.472Z,34.40
2022-12-17T10:42:01.495Z,34.30
2022-12-17T10:45:03.118Z,35.30
2022-12-17T10:48:04.675Z,43.60
2022-12-17T10:51:06.105Z,43.30
2022-12-17T10:54:10.547Z,41.20
2022-12-17T10:57:18.728Z,37.50
2022-12-17T11:00:19.961Z,50.70
2022-12-17T11:03:22.977Z,39.90
2022-12-17T11:06:25.193Z,41.50
2022-12-17T11:09:35.556Z,40.00
2022-12-17T11:12:41.774Z,37.60
2022-12-17T11:16:05.999Z,37.70
2022-12-17T11:19:17.200Z,36.10
2022-12-17T11:22:44.418Z,42.40
2022-12-17T11:26:05.398Z,43.10
2022-12-17T11:29:06.849Z,43.00
2022-12-17T11:32:28.761Z,40.00
2022-12-17T11:35:38.056Z,44.90
2022-12-17T11:39:32.217Z,43.20
2022-12-17T11:42:42.783Z,37.50
2022-12-17T11:45:57.355Z,44.90
2022-12-17T11:49:07.511Z,40.30
2022-12-17T11:52:31.157Z,44.10
2022-12-17T11:58:52.640Z,42.90
2022-12-17T12:02:03.554Z,42.30
2022-12-17T12:05:05.237Z,44.70
2022-12-17T12:08:19.197Z,48.40
2022-12-17T12:11:52.305Z,45.50
2022-12-17T12:15:03.911Z,49.10
2022-12-17T12:18:13.010Z,45.90
2022-12-17T12:21:33.084Z,44.90
2022-12-17T12:24:50.843Z,56.50
2022-12-17T12:27:59.913Z,52.00
2022-12-17T12:31:19.833Z,52.00
2022-12-17T12:34:33.027Z,92.10
2022-12-17T12:37:37.375Z,127.80
2022-12-17T12:40:54.953Z,129.80
2022-12-17T12:44:03.564Z,82.80
2022-12-17T12:47:38.100Z,70.80
2022-12-17T12:50:57.632Z,52.90
2022-12-17T12:53:59.554Z,49.00
2022-12-17T12:57:01.298Z,46.30
2022-12-17T13:00:07.789Z,54.40
2022-12-17T13:03:09.503Z,56.40
2022-12-17T13:05:52.412Z,49.70
2022-12-17T13:08:35.772Z,53.30
2022-12-17T13:11:29.584Z,50.00
2022-12-17T13:14:22.143Z,61.10
2022-12-17T13:17:14.256Z,49.60
2022-12-17T13:19:56.915Z,48.70
2022-12-17T13:23:09.336Z,51.30
2022-12-17T13:26:12.437Z,49.10
2022-12-17T13:28:55.274Z,50.80
2022-12-17T13:34:31.667Z,51.60
2022-12-17T13:37:28.031Z,44.10
2022-12-17T13:40:30.387Z,48.30
2022-12-17T13:43:22.360Z,60.80
2022-12-17T13:46:05.730Z,60.90
2022-12-17T13:48:58.043Z,66.60
2022-12-17T13:51:40.979Z,65.50
2022-12-17T13:54:23.820Z,62.70
2022-12-17T13:57:08.648Z,57.80
2022-12-17T13:59:54.482Z,61.00
2022-12-17T14:02:39.345Z,66.00
2022-12-17T14:05:24.876Z,58.20
2022-12-17T14:08:08.627Z,57.40
2022-12-17T14:11:13.620Z,55.00
2022-12-17T14:13:56.582Z,55.70
2022-12-17T14:16:44.842Z,48.60
2022-12-17T14:19:32.915Z,60.70
2022-12-17T14:22:30.739Z,56.60
2022-12-17T14:25:23.183Z,57.20
2022-12-17T14:28:21.323Z,55.40
2022-12-17T14:31:27.762Z,79.20
2022-12-17T14:34:11.832Z,64.80
2022-12-17T14:36:58.030Z,55.90
2022-12-17T14:39:45.057Z,66.10
2022-12-17T14:42:30.801Z,68.90
2022-12-17T14:45:16.335Z,52.70
2022-12-17T14:48:01.384Z,53.60
2022-12-17T14:50:55.360Z,76.00
2022-12-17T14:53:38.108Z,69.60
2022-12-17T14:56:23.641Z,57.60
2022-12-17T14:59:37.322Z,50.20
2022-12-17T15:02:26.950Z,62.80
2022-12-17T15:05:15.280Z,79.90
2022-12-17T15:07:58.004Z,77.50
2022-12-17T15:10:40.747Z,111.00
2022-12-17T15:13:23.667Z,72.60
2022-12-17T15:18:49.901Z,65.10
2022-12-17T15:21:33.105Z,76.60
2022-12-17T15:24:19.326Z,72.70
2022-12-17T15:27:03.161Z,63.30
2022-12-17T15:29:46.120Z,68.40
2022-12-17T15:35:14.757Z,64.00
2022-12-17T15:37:57.475Z,77.70
2022-12-17T15:40:40.387Z,95.50
2022-12-17T15:46:10.561Z,60.70
2022-12-17T15:48:53.446Z,55.10
2022-12-17T15:54:19.356Z,57.70
2022-12-17T15:57:02.149Z,56.70
2022-12-17T15:59:44.978Z,52.30
2022-12-17T16:05:12.550Z,56.30
2022-12-17T16:07:59.189Z,50.80
2022-12-17T16:10:42.097Z,62.10
2022-12-17T16:16:08.921Z,58.10
2022-12-17T16:18:52.724Z,62.20
2022-12-17T16:21:35.623Z,50.50
2022-12-17T16:24:18.987Z,49.00
2022-12-17T16:27:04.599Z,53.70
2022-12-17T16:29:48.399Z,51.30
2022-12-17T16:32:36.068Z,43.90
2022-12-17T16:35:19.470Z,49.30
2022-12-17T16:38:02.636Z,54.40
2022-12-17T16:40:46.709Z,53.40
2022-12-17T16:43:33.524Z,54.30
2022-12-17T16:46:26.499Z,50.20
2022-12-17T16:49:16.532Z,45.60
2022-12-17T16:51:59.658Z,48.80
2022-12-17T16:54:42.465Z,43.00
2022-12-17T16:57:26.506Z,48.90
2022-12-17T17:00:10.119Z,51.20
2022-12-17T17:02:53.702Z,54.90
2022-12-17T17:05:39.351Z,55.90
2022-12-17T17:08:22.358Z,52.70
2022-12-17T17:11:11.184Z,52.20
2022-12-17T17:13:55.043Z,44.10
2022-12-17T17:16:38.266Z,49.00
2022-12-17T17:19:21.181Z,44.40
2022-12-17T17:24:46.806Z,52.70
2022-12-17T17:30:13.045Z,44.70
2022-12-17T17:32:55.816Z,51.90
2022-12-17T17:35:38.566Z,49.00
2022-12-17T17:38:21.377Z,52.30
2022-12-17T17:41:06.052Z,48.30
2022-12-17T17:43:56.995Z,45.70
2022-12-17T17:46:40.154Z,39.90
2022-12-17T17:49:23.166Z,49.10
2022-12-17T17:52:10.698Z,53.40
2022-12-17T17:54:54.626Z,48.00
2022-12-17T18:00:20.249Z,42.30
2022-12-17T18:03:03.137Z,48.10
2022-12-17T18:05:46.067Z,82.60
2022-12-17T18:11:15.474Z,79.70
2022-12-17T18:14:02.293Z,105.40
2022-12-17T18:16:47.845Z,222.50
2022-12-17T18:19:30.683Z,80.80
2022-12-17T18:24:56.203Z,67.60
2022-12-17T18:27:39.441Z,69.70
2022-12-17T18:30:22.243Z,51.10
2022-12-17T18:35:47.776Z,43.90
2022-12-17T18:38:30.499Z,46.70
2022-12-17T18:41:35.314Z,44.10
2022-12-17T18:44:19.424Z,47.60
2022-12-17T18:47:02.351Z,48.10
2022-12-17T18:49:45.265Z,47.30
2022-12-17T18:52:28.274Z,41.60
2022-12-17T18:55:11.274Z,43.90
2022-12-17T18:57:54.100Z,50.70
2022-12-17T19:03:20.958Z,57.50
2022-12-17T19:06:07.560Z,66.70
2022-12-17T19:08:51.283Z,47.70
2022-12-17T19:11:40.440Z,55.60
2022-12-17T19:14:26.323Z,53.90
2022-12-17T19:17:09.648Z,57.40
2022-12-17T19:19:52.561Z,60.30
2022-12-17T19:22:35.374Z,48.60
2022-12-17T19:28:01.045Z,62.00
2022-12-17T19:30:44.423Z,49.20
2022-12-17T19:33:28.056Z,45.20
2022-12-17T19:36:13.760Z,45.50
2022-12-17T19:38:59.002Z,48.30
2022-12-17T19:41:42.019Z,47.30
2022-12-17T19:44:25.345Z,43.20
2022-12-17T19:47:08.155Z,45.10
2022-12-17T19:52:34.088Z,43.10
2022-12-17T19:55:17.919Z,43.90
2022-12-17T19:58:00.732Z,42.60
2022-12-17T20:03:26.343Z,41.60
2022-12-17T20:08:52.698Z,39.00
2022-12-17T20:14:26.588Z,44.50
2022-12-17T20:17:09.668Z,42.20
2022-12-17T20:19:53.974Z,45.80
2022-12-17T20:22:38.015Z,43.10
2022-12-17T20:25:20.827Z,47.80
2022-12-17T20:30:46.456Z,46.50
2022-12-17T20:36:15.248Z,51.20
2022-12-17T20:38:58.907Z,48.60
2022-12-17T20:41:44.564Z,48.90
2022-12-17T20:44:27.372Z,41.10
2022-12-17T20:49:53.405Z,43.70
2022-12-17T20:55:19.437Z,42.30
2022-12-17T20:58:02.455Z,43.20
2022-12-17T21:00:45.225Z,39.70
2022-12-17T21:03:28.135Z,43.10
2022-12-17T21:06:16.773Z,47.10
2022-12-17T21:08:59.641Z,51.40
2022-12-17T21:14:29.156Z,51.70
2022-12-17T21:17:15.241Z,54.70
2022-12-17T21:20:02.858Z,60.70
2022-12-17T21:22:49.150Z,88.40
2022-12-17T21:25:31.967Z,66.30
2022-12-17T21:30:58.684Z,55.70
2022-12-17T21:33:41.527Z,57.20
2022-12-17T21:36:25.770Z,51.80
2022-12-17T21:39:09.971Z,72.00
2022-12-17T21:42:11.659Z,65.90
2022-12-17T21:44:54.469Z,66.50
2022-12-17T21:47:37.610Z,53.40
2022-12-17T21:53:04.134Z,57.10
2022-12-17T21:55:47.253Z,59.90
2022-12-17T21:58:30.480Z,62.10
2022-12-17T22:01:23.811Z,61.50
2022-12-17T22:04:06.901Z,65.60
2022-12-17T22:06:58.216Z,59.20
2022-12-17T22:10:21.259Z,63.30
2022-12-17T22:13:07.572Z,58.90
2022-12-17T22:15:50.406Z,71.20
2022-12-17T22:21:16.010Z,66.20
2022-12-17T22:26:41.942Z,63.50
2022-12-17T22:29:43.602Z,58.70
2022-12-17T22:32:45.026Z,57.00
2022-12-17T22:37:01.828Z,57.10
2022-12-17T22:42:16.233Z,66.80
2022-12-17T22:44:48.658Z,64.00
2022-12-17T22:45:10.801Z,59.90
2022-12-17T22:47:54.659Z,62.70
2022-12-17T22:53:28.471Z,66.50
2022-12-17T22:56:28.742Z,59.30
2022-12-17T22:59:19.065Z,61.70
2022-12-17T23:02:01.976Z,56.90
2022-12-17T23:04:44.789Z,57.20
2022-12-17T23:07:31.720Z,53.50
2022-12-17T23:10:14.917Z,54.30
2022-12-17T23:12:58.037Z,57.70
2022-12-17T23:15:40.897Z,58.70
2022-12-17T23:21:24.278Z,55.50
2022-12-17T23:24:07.823Z,55.20
2022-12-17T23:26:50.721Z,54.30
2022-12-17T23:29:35.786Z,63.30
2022-12-17T23:32:18.599Z,59.20
2022-12-17T23:35:01.411Z,66.10
2022-12-17T23:37:44.374Z,64.60
2022-12-17T23:40:27.135Z,74.30
2022-12-17T23:43:14.357Z,71.20
2022-12-17T23:46:00.898Z,72.10
2022-12-17T23:48:46.032Z,79.20
2022-12-17T23:51:29.438Z,68.80
2022-12-17T23:54:12.250Z,64.70
2022-12-17T23:56:55.061Z,72.40
